createdAt,value
2023-05-10T00:00:34.460Z,0.20
2023-05-10T00:03:01.521Z,0.20
2023-05-10T00:05:28.484Z,0.40
2023-05-10T00:07:55.488Z,0.30
2023-05-10T00:10:22.371Z,0.30
2023-05-10T00:12:49.271Z,0.40
2023-05-10T00:15:16.341Z,0.20
2023-05-10T00:17:43.275Z,0.28
2023-05-10T00:20:11.615Z,0.20
2023-05-10T00:22:38.526Z,0.20
2023-05-10T00:25:06.618Z,0.30
2023-05-10T00:27:33.844Z,0.20
2023-05-10T00:30:00.695Z,0.20
2023-05-10T00:32:27.618Z,0.47
2023-05-10T00:34:54.490Z,0.28
2023-05-10T00:37:21.373Z,0.10
2023-05-10T00:39:48.230Z,0.20
2023-05-10T00:42:15.144Z,0.20
2023-05-10T00:44:42.025Z,0.10
2023-05-10T00:47:09.445Z,0.20
2023-05-10T00:49:37.041Z,0.10
2023-05-10T00:52:04.302Z,0.13
2023-05-10T00:54:31.653Z,0.20
2023-05-10T00:56:58.621Z,0.10
2023-05-10T00:59:26.473Z,1.00
2023-05-10T01:01:53.548Z,0.30
2023-05-10T01:04:22.925Z,0.10
2023-05-10T01:06:49.774Z,0.10
2023-05-10T01:09:16.739Z,0.10
2023-05-10T01:11:43.622Z,0.10
2023-05-10T01:14:11.162Z,0.20
2023-05-10T01:16:40.535Z,0.10
2023-05-10T01:19:25.483Z,0.10
2023-05-10T01:22:23.941Z,0.10
2023-05-10T01:24:57.459Z,0.10
2023-05-10T01:27:51.746Z,0.10
2023-05-10T01:30:41.837Z,0.10
2023-05-10T01:33:32.041Z,0.10
2023-05-10T01:36:16.489Z,0.10
2023-05-10T01:38:51.744Z,0.10
2023-05-10T01:41:44.323Z,0.05
2023-05-10T01:44:26.203Z,0.10
2023-05-10T01:47:06.329Z,0.13
2023-05-10T01:49:44.813Z,0.10
2023-05-10T01:52:15.645Z,0.20
2023-05-10T01:54:49.092Z,0.10
2023-05-10T01:57:18.335Z,0.10
2023-05-10T01:59:50.237Z,0.13
2023-05-10T02:02:20.217Z,0.00
2023-05-10T02:04:49.573Z,0.10
2023-05-10T02:07:17.579Z,0.22
2023-05-10T02:09:49.530Z,0.10
2023-05-10T02:12:17.684Z,0.10
2023-05-10T02:14:46.474Z,0.20
2023-05-10T02:17:14.012Z,0.28
2023-05-10T02:19:43.456Z,0.20
2023-05-10T02:22:11.396Z,0.10
2023-05-10T02:24:40.081Z,0.20
2023-05-10T02:27:08.050Z,0.20
2023-05-10T02:29:35.723Z,0.10
2023-05-10T02:32:03.964Z,0.15
2023-05-10T02:34:31.427Z,0.13
2023-05-10T02:37:00.058Z,0.28
2023-05-10T02:39:29.771Z,0.28
2023-05-10T02:41:58.267Z,0.38
2023-05-10T02:44:26.348Z,0.10
2023-05-10T02:46:53.232Z,0.25
2023-05-10T02:49:20.884Z,0.10
2023-05-10T02:51:53.111Z,0.20
2023-05-10T02:54:24.300Z,0.20
2023-05-10T02:57:00.632Z,0.20
2023-05-10T02:59:28.329Z,0.20
2023-05-10T03:01:55.344Z,0.22
2023-05-10T03:04:22.782Z,0.22
2023-05-10T03:06:49.851Z,0.20
2023-05-10T03:09:16.845Z,0.30
2023-05-10T03:12:04.395Z,0.38
2023-05-10T03:15:07.430Z,0.30
2023-05-10T03:17:52.333Z,0.50
2023-05-10T03:20:47.594Z,0.40
2023-05-10T03:23:36.635Z,0.30
2023-05-10T03:26:04.458Z,0.88
2023-05-10T03:28:32.772Z,0.40
2023-05-10T03:31:00.910Z,0.50
2023-05-10T03:33:27.996Z,0.40
2023-05-10T03:35:54.904Z,0.30
2023-05-10T03:38:21.787Z,0.40
2023-05-10T03:40:48.666Z,0.40
2023-05-10T03:43:15.630Z,0.50
2023-05-10T03:45:42.488Z,0.77
2023-05-10T03:48:09.410Z,0.57
2023-05-10T03:50:36.308Z,0.50
2023-05-10T03:53:03.530Z,0.45
2023-05-10T03:55:30.684Z,0.30
2023-05-10T03:57:57.527Z,0.40
2023-05-10T04:00:24.632Z,0.43
2023-05-10T04:02:51.551Z,0.17
2023-05-10T04:05:18.587Z,0.30
2023-05-10T04:07:45.557Z,0.57
2023-05-10T04:10:12.698Z,0.30
2023-05-10T04:12:39.635Z,0.43
2023-05-10T04:15:07.989Z,0.30
2023-05-10T04:17:35.067Z,0.20
2023-05-10T04:20:02.099Z,0.20
2023-05-10T04:22:30.261Z,0.63
2023-05-10T04:24:57.175Z,0.30
2023-05-10T04:27:24.110Z,0.60
2023-05-10T04:29:51.408Z,0.40
2023-05-10T04:32:18.403Z,0.30
2023-05-10T04:34:45.418Z,0.20
2023-05-10T04:37:12.298Z,0.32
2023-05-10T04:39:40.984Z,0.65
2023-05-10T04:42:09.229Z,0.38
2023-05-10T04:44:36.782Z,0.40
2023-05-10T04:47:04.270Z,0.65
2023-05-10T04:49:31.257Z,0.30
2023-05-10T04:51:58.096Z,0.25
2023-05-10T04:54:25.562Z,0.38
2023-05-10T04:56:52.566Z,0.40
2023-05-10T04:59:20.239Z,0.50
2023-05-10T05:01:47.106Z,0.40
2023-05-10T05:04:13.984Z,0.47
2023-05-10T05:06:40.838Z,0.40
2023-05-10T05:09:07.784Z,0.40
2023-05-10T05:11:34.748Z,0.57
2023-05-10T05:14:01.662Z,0.60
2023-05-10T05:16:28.572Z,0.40
2023-05-10T05:18:55.506Z,0.52
2023-05-10T05:21:22.729Z,0.45
2023-05-10T05:23:49.580Z,0.30
2023-05-10T05:26:17.150Z,0.50
2023-05-10T05:28:44.196Z,0.40
2023-05-10T05:31:11.234Z,0.60
2023-05-10T05:33:38.515Z,0.88
2023-05-10T05:36:07.050Z,1.23
2023-05-10T05:38:34.342Z,2.10
2023-05-10T05:41:01.454Z,1.30
2023-05-10T05:43:28.369Z,0.90
2023-05-10T05:45:55.437Z,0.65
2023-05-10T05:48:22.561Z,0.70
2023-05-10T05:50:49.435Z,0.40
2023-05-10T05:53:16.996Z,0.50
2023-05-10T05:55:58.317Z,0.75
2023-05-10T05:58:26.451Z,0.40
2023-05-10T06:00:53.917Z,0.45
2023-05-10T06:03:21.272Z,0.35
2023-05-10T06:05:48.408Z,0.65
2023-05-10T06:08:15.250Z,0.82
2023-05-10T06:10:42.120Z,0.50
2023-05-10T06:13:09.108Z,0.40
2023-05-10T06:15:36.105Z,0.40
2023-05-10T06:18:03.060Z,0.47
2023-05-10T06:20:30.138Z,0.50
2023-05-10T06:22:57.025Z,1.13
2023-05-10T06:25:23.870Z,0.35
2023-05-10T06:27:53.673Z,0.20
2023-05-10T06:30:21.369Z,0.40
2023-05-10T06:32:48.373Z,0.50
2023-05-10T06:35:15.509Z,0.40
2023-05-10T06:37:42.572Z,0.30
2023-05-10T06:40:10.546Z,0.30
2023-05-10T06:42:37.499Z,0.20
2023-05-10T06:45:05.014Z,0.40
2023-05-10T06:47:31.950Z,0.30
2023-05-10T06:49:58.886Z,0.50
2023-05-10T06:52:25.806Z,0.82
2023-05-10T06:54:52.639Z,0.22
2023-05-10T06:57:30.611Z,0.60
2023-05-10T06:59:59.732Z,0.38
2023-05-10T07:02:26.750Z,0.43
2023-05-10T07:04:53.905Z,0.50
2023-05-10T07:07:20.895Z,0.50
2023-05-10T07:09:47.873Z,0.32
2023-05-10T07:12:16.088Z,0.25
2023-05-10T07:14:43.754Z,0.38
2023-05-10T07:17:11.187Z,0.40
2023-05-10T07:19:38.193Z,0.50
2023-05-10T07:22:05.149Z,0.40
2023-05-10T07:24:33.562Z,0.20
2023-05-10T07:27:00.558Z,0.60
2023-05-10T07:29:27.665Z,0.32
2023-05-10T07:31:57.106Z,0.30
2023-05-10T07:34:25.665Z,0.30
2023-05-10T07:36:53.332Z,0.35
2023-05-10T07:39:27.476Z,0.40
2023-05-10T07:41:56.279Z,0.20
2023-05-10T07:44:23.572Z,0.70
2023-05-10T07:46:50.949Z,0.50
2023-05-10T07:49:18.103Z,0.40
2023-05-10T07:51:45.014Z,0.82
2023-05-10T07:54:11.995Z,0.80
2023-05-10T07:56:39.126Z,0.30
2023-05-10T07:59:08.963Z,0.80
2023-05-10T08:01:37.183Z,0.50
2023-05-10T08:04:04.287Z,0.77
2023-05-10T08:06:31.513Z,0.73
2023-05-10T08:08:58.619Z,0.55
2023-05-10T08:11:26.077Z,0.70
2023-05-10T08:13:54.066Z,0.50
2023-05-10T08:16:21.759Z,0.30
2023-05-10T08:18:50.365Z,0.93
2023-05-10T08:21:17.595Z,0.60
2023-05-10T08:23:45.277Z,0.40
2023-05-10T08:26:12.674Z,0.30
2023-05-10T08:28:39.752Z,0.43
2023-05-10T08:31:07.030Z,0.15
2023-05-10T08:33:34.257Z,0.68
2023-05-10T08:36:01.188Z,2.15
2023-05-10T08:38:28.301Z,1.55
2023-05-10T08:40:59.948Z,1.50
2023-05-10T08:43:32.407Z,0.40
2023-05-10T08:46:04.226Z,0.40
2023-05-10T08:48:32.366Z,1.27
2023-05-10T08:51:01.192Z,1.83
2023-05-10T08:53:30.264Z,0.43
2023-05-10T08:55:59.087Z,1.15
2023-05-10T08:58:26.543Z,1.90
2023-05-10T09:00:54.182Z,1.13
2023-05-10T09:03:21.090Z,0.75
2023-05-10T09:05:51.812Z,1.17
2023-05-10T09:08:18.962Z,0.60
2023-05-10T09:10:48.406Z,0.50
2023-05-10T09:13:16.634Z,0.38
2023-05-10T09:15:45.536Z,0.30
2023-05-10T09:18:13.241Z,0.22
2023-05-10T09:20:40.323Z,0.20
2023-05-10T09:23:07.876Z,0.30
2023-05-10T09:25:34.994Z,0.25
2023-05-10T09:28:02.010Z,0.25
2023-05-10T09:30:32.401Z,0.30
2023-05-10T09:33:01.088Z,0.47
2023-05-10T09:35:30.700Z,0.10
2023-05-10T09:38:01.846Z,0.20
2023-05-10T09:40:30.818Z,0.38
2023-05-10T09:43:08.007Z,0.50
2023-05-10T09:45:38.514Z,0.30
2023-05-10T09:48:07.188Z,0.20
2023-05-10T09:50:35.453Z,0.25
2023-05-10T09:53:04.762Z,0.25
2023-05-10T09:56:05.244Z,0.20
2023-05-10T09:58:32.093Z,0.20
2023-05-10T10:01:01.867Z,0.30
2023-05-10T10:03:30.958Z,0.10
2023-05-10T10:05:58.193Z,0.20
2023-05-10T10:08:25.629Z,0.30
2023-05-10T10:10:52.543Z,0.22
2023-05-10T10:13:19.744Z,0.30
2023-05-10T10:15:48.035Z,0.20
2023-05-10T10:18:18.760Z,0.30
2023-05-10T10:20:46.555Z,0.20
2023-05-10T10:23:15.166Z,0.47
2023-05-10T10:25:45.618Z,0.30
2023-05-10T10:29:03.008Z,0.40
2023-05-10T10:31:43.250Z,0.30
2023-05-10T10:34:14.223Z,0.40
2023-05-10T10:36:46.564Z,0.30
2023-05-10T10:39:13.968Z,0.43
2023-05-10T10:41:51.705Z,0.40
2023-05-10T10:44:25.669Z,0.30
2023-05-10T10:47:24.309Z,0.38
2023-05-10T10:50:10.031Z,0.45
2023-05-10T10:52:39.420Z,0.20
2023-05-10T10:55:31.102Z,0.60
2023-05-10T10:58:07.199Z,0.40
2023-05-10T11:00:38.050Z,0.68
2023-05-10T11:03:14.605Z,0.40
2023-05-10T11:05:45.830Z,0.40
2023-05-10T11:08:28.661Z,0.40
2023-05-10T11:11:01.388Z,0.40
2023-05-10T11:13:51.409Z,0.30
2023-05-10T11:16:26.060Z,0.40
2023-05-10T11:19:04.992Z,0.40
2023-05-10T11:21:33.817Z,0.32
2023-05-10T11:24:02.430Z,0.40
2023-05-10T11:26:36.327Z,0.30
2023-05-10T11:29:05.604Z,0.32
2023-05-10T11:31:32.517Z,0.20
2023-05-10T11:34:02.867Z,0.35
2023-05-10T11:36:34.595Z,0.60
2023-05-10T11:39:01.795Z,0.30
2023-05-10T11:41:31.379Z,0.50
2023-05-10T11:43:59.638Z,0.45
2023-05-10T11:46:28.779Z,0.30
2023-05-10T11:49:02.744Z,0.22
2023-05-10T11:51:29.790Z,0.30
2023-05-10T11:53:58.475Z,0.50
2023-05-10T11:56:27.440Z,0.50
2023-05-10T11:58:59.773Z,0.40
2023-05-10T12:01:28.644Z,0.40
2023-05-10T12:04:01.748Z,0.20
2023-05-10T12:06:32.937Z,0.40
2023-05-10T12:09:00.799Z,0.35
2023-05-10T12:11:29.802Z,0.30
2023-05-10T12:13:57.821Z,0.40
2023-05-10T12:16:27.306Z,0.10
2023-05-10T12:18:58.975Z,0.45
2023-05-10T12:21:26.743Z,0.17
2023-05-10T12:23:59.850Z,0.30
2023-05-10T12:26:27.720Z,0.30
2023-05-10T12:28:55.559Z,0.38
2023-05-10T12:31:22.560Z,0.50
2023-05-10T12:33:50.526Z,0.43
2023-05-10T12:36:19.127Z,0.70
2023-05-10T12:38:49.643Z,0.68
2023-05-10T12:41:18.822Z,0.40
2023-05-10T12:43:49.454Z,0.40
2023-05-10T12:46:18.847Z,0.60
2023-05-10T12:49:07.665Z,0.50
2023-05-10T12:51:36.136Z,0.63
2023-05-10T12:54:04.860Z,0.50
2023-05-10T12:56:31.766Z,0.50
2023-05-10T12:58:58.641Z,0.55
2023-05-10T13:01:25.629Z,0.50
2023-05-10T13:03:52.489Z,0.60
2023-05-10T13:06:19.426Z,0.35
2023-05-10T13:08:46.293Z,0.40
2023-05-10T13:11:17.678Z,0.60
2023-05-10T13:13:44.549Z,0.40
2023-05-10T13:16:11.412Z,0.45
2023-05-10T13:18:38.344Z,0.60
2023-05-10T13:21:06.577Z,1.08
2023-05-10T13:23:33.533Z,0.60
2023-05-10T13:26:03.102Z,0.30
2023-05-10T13:28:30.735Z,0.30
2023-05-10T13:30:57.672Z,0.68
2023-05-10T13:33:24.680Z,0.80
2023-05-10T13:35:52.763Z,0.40
2023-05-10T13:38:22.399Z,0.77
2023-05-10T13:40:49.483Z,0.38
2023-05-10T13:43:16.461Z,0.22
2023-05-10T13:45:43.408Z,0.50
2023-05-10T13:48:10.318Z,0.50
2023-05-10T13:50:37.284Z,0.50
2023-05-10T13:53:04.149Z,0.50
2023-05-10T13:55:31.835Z,0.73
2023-05-10T13:57:59.170Z,0.70
2023-05-10T14:00:26.160Z,0.57
2023-05-10T14:02:53.069Z,0.30
2023-05-10T14:05:24.058Z,0.55
2023-05-10T14:07:52.914Z,0.55
2023-05-10T14:10:19.843Z,0.47
2023-05-10T14:12:46.914Z,0.57
2023-05-10T14:15:13.878Z,0.45
2023-05-10T14:17:40.863Z,0.50
2023-05-10T14:20:08.860Z,0.52
2023-05-10T14:22:36.536Z,0.38
2023-05-10T14:25:03.511Z,0.60
2023-05-10T14:27:31.455Z,0.80
2023-05-10T14:29:58.381Z,0.45
2023-05-10T14:32:25.335Z,0.40
2023-05-10T14:34:52.265Z,0.60
2023-05-10T14:37:19.110Z,0.47
2023-05-10T14:39:45.941Z,0.47
2023-05-10T14:42:13.178Z,0.50
2023-05-10T14:44:40.049Z,0.68
2023-05-10T14:47:06.955Z,0.50
2023-05-10T14:49:33.806Z,0.30
2023-05-10T14:52:00.736Z,0.32
2023-05-10T14:54:28.555Z,0.47
2023-05-10T14:56:55.407Z,1.00
2023-05-10T14:59:22.387Z,0.28
2023-05-10T15:01:49.563Z,0.30
2023-05-10T15:04:17.665Z,0.63
2023-05-10T15:06:45.440Z,0.35
2023-05-10T15:09:12.330Z,0.80
2023-05-10T15:11:39.186Z,0.45
2023-05-10T15:14:06.296Z,0.50
2023-05-10T15:16:35.861Z,0.40
2023-05-10T15:19:03.383Z,0.43
2023-05-10T15:21:31.964Z,0.52
2023-05-10T15:23:58.826Z,0.40
2023-05-10T15:26:27.413Z,0.60
2023-05-10T15:28:54.326Z,0.70
2023-05-10T15:31:21.310Z,0.52
2023-05-10T15:33:48.278Z,0.50
2023-05-10T15:36:15.214Z,0.40
2023-05-10T15:38:42.118Z,0.43
2023-05-10T15:41:08.996Z,0.20
2023-05-10T15:43:36.028Z,0.40
2023-05-10T15:46:03.686Z,0.47
2023-05-10T15:48:32.487Z,0.43
2023-05-10T15:50:59.497Z,0.40
2023-05-10T15:53:26.371Z,0.43
2023-05-10T15:55:53.243Z,0.60
2023-05-10T15:58:20.577Z,0.57
2023-05-10T16:00:47.685Z,0.55
2023-05-10T16:04:36.990Z,0.57
2023-05-10T16:07:04.097Z,0.47
2023-05-10T16:09:31.261Z,0.60
2023-05-10T16:11:58.385Z,0.40
2023-05-10T16:14:25.336Z,0.50
2023-05-10T16:16:52.526Z,0.50
2023-05-10T16:19:22.707Z,0.40
2023-05-10T16:21:50.639Z,0.40
2023-05-10T16:24:17.744Z,0.55
2023-05-10T16:26:45.064Z,0.70
2023-05-10T16:29:12.378Z,0.40
2023-05-10T16:31:42.486Z,0.32
2023-05-10T16:34:09.602Z,0.50
2023-05-10T16:36:36.893Z,0.30
2023-05-10T16:39:04.436Z,0.50
2023-05-10T16:41:35.052Z,0.35
2023-05-10T16:44:03.886Z,0.40
2023-05-10T16:46:31.342Z,0.40
2023-05-10T16:48:59.991Z,0.28
2023-05-10T16:51:28.050Z,0.40
2023-05-10T16:53:56.256Z,0.63
2023-05-10T16:56:23.666Z,0.52
2023-05-10T16:58:50.844Z,0.55
2023-05-10T17:01:19.537Z,0.30
2023-05-10T17:03:47.115Z,0.30
2023-05-10T17:06:14.487Z,0.38
2023-05-10T17:08:41.474Z,0.50
2023-05-10T17:11:08.539Z,0.32
2023-05-10T17:13:35.486Z,0.50
2023-05-10T17:16:04.022Z,0.38
2023-05-10T17:18:31.239Z,0.57
2023-05-10T17:20:58.423Z,0.43
2023-05-10T17:23:25.354Z,0.38
2023-05-10T17:25:52.286Z,0.30
2023-05-10T17:28:19.290Z,0.40
2023-05-10T17:30:46.253Z,0.40
2023-05-10T17:33:13.235Z,0.40
2023-05-10T17:35:40.236Z,0.68
2023-05-10T17:38:07.216Z,0.40
2023-05-10T17:40:34.216Z,0.40
2023-05-10T17:43:01.225Z,0.68
2023-05-10T17:45:28.261Z,0.35
2023-05-10T17:47:55.198Z,0.55
2023-05-10T17:50:22.198Z,0.40
2023-05-10T17:52:49.131Z,0.75
2023-05-10T17:55:16.453Z,0.70
2023-05-10T17:57:43.739Z,0.68
2023-05-10T18:00:11.627Z,0.57
2023-05-10T18:02:38.565Z,0.70
2023-05-10T18:05:06.210Z,0.57
2023-05-10T18:07:33.525Z,0.70
2023-05-10T18:10:01.276Z,0.70
2023-05-10T18:12:28.216Z,0.50
2023-05-10T18:14:55.044Z,0.80
2023-05-10T18:17:21.937Z,1.42
2023-05-10T18:19:48.954Z,0.80
2023-05-10T18:22:15.832Z,0.80
2023-05-10T18:24:43.033Z,0.30
2023-05-10T18:27:09.982Z,0.60
2023-05-10T18:29:37.325Z,0.60
2023-05-10T18:32:04.434Z,2.63
2023-05-10T18:34:31.278Z,2.50
2023-05-10T18:36:58.228Z,1.17
2023-05-10T18:39:25.173Z,1.08
2023-05-10T18:41:52.182Z,1.20
2023-05-10T18:44:19.294Z,0.50
2023-05-10T18:46:46.541Z,0.60
2023-05-10T18:49:13.559Z,0.32
2023-05-10T18:51:40.678Z,0.77
2023-05-10T18:54:07.690Z,1.33
2023-05-10T18:56:34.657Z,0.40
2023-05-10T18:59:01.702Z,0.50
2023-05-10T19:01:28.612Z,0.57
2023-05-10T19:03:55.525Z,0.52
2023-05-10T19:06:22.349Z,0.50
2023-05-10T19:08:50.533Z,0.75
2023-05-10T19:11:17.571Z,0.40
2023-05-10T19:13:45.553Z,0.60
2023-05-10T19:16:15.627Z,0.40
2023-05-10T19:18:44.739Z,0.50
2023-05-10T19:21:11.778Z,0.35
2023-05-10T19:23:43.071Z,0.55
2023-05-10T19:26:12.518Z,0.43
2023-05-10T19:28:39.388Z,0.30
2023-05-10T19:31:07.833Z,0.43
2023-05-10T19:33:36.175Z,0.70
2023-05-10T19:36:03.256Z,0.50
2023-05-10T19:38:30.268Z,0.47
2023-05-10T19:41:00.613Z,1.98
2023-05-10T19:43:29.580Z,2.42
2023-05-10T19:46:02.583Z,2.22
2023-05-10T19:48:29.837Z,1.00
2023-05-10T19:51:03.837Z,0.43
2023-05-10T19:53:31.915Z,0.57
2023-05-10T19:56:06.661Z,0.40
2023-05-10T19:58:34.272Z,0.40
2023-05-10T20:01:01.320Z,0.50
2023-05-10T20:03:28.752Z,0.95
2023-05-10T20:05:55.600Z,0.82
2023-05-10T20:08:22.462Z,0.47
2023-05-10T20:10:49.320Z,0.70
2023-05-10T20:13:16.162Z,0.70
2023-05-10T20:15:43.032Z,0.80
2023-05-10T20:18:10.300Z,0.80
2023-05-10T20:20:37.208Z,0.60
2023-05-10T20:23:04.192Z,0.68
2023-05-10T20:25:31.099Z,0.55
2023-05-10T20:27:58.017Z,0.70
2023-05-10T20:30:24.902Z,0.80
2023-05-10T20:32:52.061Z,0.55
2023-05-10T20:35:18.971Z,0.70
2023-05-10T20:37:45.929Z,0.50
2023-05-10T20:40:13.196Z,0.88
2023-05-10T20:42:40.021Z,0.60
2023-05-10T20:45:07.719Z,0.40
2023-05-10T20:47:35.696Z,0.60
2023-05-10T20:50:02.642Z,0.38
2023-05-10T20:52:29.471Z,0.70
2023-05-10T20:54:56.325Z,0.75
2023-05-10T20:57:23.177Z,0.70
2023-05-10T20:59:51.005Z,0.50
2023-05-10T21:02:17.961Z,0.40
2023-05-10T21:04:44.836Z,0.57
2023-05-10T21:07:12.413Z,0.50
2023-05-10T21:09:39.256Z,0.40
2023-05-10T21:12:06.537Z,0.50
2023-05-10T21:14:33.480Z,0.73
2023-05-10T21:17:00.314Z,0.60
2023-05-10T21:19:27.468Z,0.77
2023-05-10T21:21:56.304Z,0.63
2023-05-10T21:24:23.618Z,0.60
2023-05-10T21:26:50.539Z,0.55
2023-05-10T21:29:17.358Z,0.57
2023-05-10T21:31:44.207Z,0.75
2023-05-10T21:34:11.224Z,0.50
2023-05-10T21:36:38.056Z,0.55
2023-05-10T21:39:05.093Z,0.45
2023-05-10T21:41:31.995Z,0.60
2023-05-10T21:43:58.890Z,0.80
2023-05-10T21:46:25.829Z,0.70
2023-05-10T21:48:52.675Z,0.52
2023-05-10T21:51:19.836Z,0.63
2023-05-10T21:53:46.737Z,0.77
2023-05-10T21:56:13.842Z,0.73
2023-05-10T21:58:40.688Z,0.40
2023-05-10T22:01:07.719Z,0.60
2023-05-10T22:03:34.760Z,0.82
2023-05-10T22:06:01.741Z,0.73
2023-05-10T22:08:28.601Z,0.50
2023-05-10T22:10:55.581Z,0.57
2023-05-10T22:13:22.439Z,0.70
2023-05-10T22:15:49.521Z,0.52
2023-05-10T22:18:16.515Z,0.57
2023-05-10T22:20:46.752Z,0.60
2023-05-10T22:23:14.100Z,0.70
2023-05-10T22:25:40.935Z,0.50
2023-05-10T22:28:09.351Z,0.70
2023-05-10T22:30:36.338Z,0.65
2023-05-10T22:33:03.262Z,0.88
2023-05-10T22:35:30.297Z,0.60
2023-05-10T22:37:57.155Z,0.55
2023-05-10T22:40:24.053Z,0.40
2023-05-10T22:42:50.959Z,0.57
2023-05-10T22:45:17.817Z,0.60
2023-05-10T22:47:44.762Z,0.50
2023-05-10T22:50:12.546Z,0.40
2023-05-10T22:52:39.622Z,0.70
2023-05-10T22:55:07.553Z,0.50
2023-05-10T22:57:34.713Z,0.70
2023-05-10T23:00:04.617Z,0.50
2023-05-10T23:02:32.285Z,0.80
2023-05-10T23:04:59.558Z,0.60
2023-05-10T23:07:26.531Z,0.55
2023-05-10T23:09:53.369Z,0.70
2023-05-10T23:12:20.217Z,1.23
2023-05-10T23:14:47.822Z,0.50
2023-05-10T23:17:14.765Z,0.60
2023-05-10T23:19:41.654Z,0.60
2023-05-10T23:22:08.966Z,0.50
2023-05-10T23:24:36.276Z,0.73
2023-05-10T23:27:04.028Z,0.60
2023-05-10T23:29:32.227Z,0.63
2023-05-10T23:31:59.192Z,0.70
2023-05-10T23:34:26.179Z,0.50
2023-05-10T23:36:53.116Z,0.50
2023-05-10T23:39:19.936Z,0.65
2023-05-10T23:41:46.838Z,0.47
2023-05-10T23:44:13.727Z,0.47
2023-05-10T23:46:40.972Z,0.63
2023-05-10T23:49:07.871Z,0.68
2023-05-10T23:51:34.714Z,0.65
2023-05-10T23:54:02.243Z,0.68
2023-05-10T23:56:29.121Z,1.27
2023-05-10T23:58:55.995Z,0.60
